Time;durP1;ratioP1;P1;durP2;ratioP2;P2;SDS_P1;SDS_P2;PMS_P1;PMS_P2;Temp;Humidity;BMP_temperature;BMP_pressure;BME280_temperature;BME280_humidity;BME280_pressure;Samples;Min_cycle;Max_cycle;Signal;HPM_P1;HPM_P2
2023/09/25 00:00:02;;;;;;;6.00;1.17;;;16.30;99.90;;;;;;4195992;28;20033;-62
2023/09/25 00:02:04;;;;;;;3.55;1.50;;;16.30;99.90;;;;;;4196862;28;20090;-64
2023/09/25 00:04:06;;;;;;;4.53;1.83;;;16.30;99.90;;;;;;4195982;28;20024;-64
2023/09/25 00:06:08;;;;;;;5.47;1.77;;;16.20;99.90;;;;;;4196701;28;20771;-62
2023/09/25 00:08:09;;;;;;;7.82;2.17;;;16.30;99.90;;;;;;4196392;28;20078;-61
2023/09/25 00:10:11;;;;;;;4.47;1.75;;;16.20;99.90;;;;;;4196075;28;20047;-62
2023/09/25 00:12:12;;;;;;;6.13;2.00;;;16.20;99.90;;;;;;4196155;28;20082;-63
2023/09/25 00:14:13;;;;;;;6.60;1.75;;;16.30;99.90;;;;;;4195076;28;20079;-64
2023/09/25 00:16:16;;;;;;;7.57;2.17;;;16.30;99.90;;;;;;4196238;28;20048;-67
2023/09/25 00:18:17;;;;;;;7.13;1.75;;;16.30;99.90;;;;;;4195933;28;20102;-63
2023/09/25 00:20:24;;;;;;;4.50;1.58;;;16.30;99.90;;;;;;4196206;28;20029;-64
2023/09/25 00:22:25;;;;;;;6.18;2.05;;;16.30;99.90;;;;;;4196509;28;20028;-63
2023/09/25 00:24:26;;;;;;;7.10;1.90;;;16.30;99.90;;;;;;4196529;28;20048;-63
2023/09/25 00:26:27;;;;;;;3.75;1.95;;;16.30;99.90;;;;;;4194634;28;20095;-64
2023/09/25 00:28:28;;;;;;;3.42;1.48;;;16.30;99.90;;;;;;4196262;28;20380;-61
2023/09/25 00:30:30;;;;;;;4.05;1.50;;;16.40;99.90;;;;;;4195500;28;20373;-63
2023/09/25 00:32:31;;;;;;;6.60;2.25;;;16.40;99.90;;;;;;4195193;28;20165;-63
2023/09/25 00:34:32;;;;;;;5.57;1.42;;;16.40;99.90;;;;;;4193920;28;20032;-64
2023/09/25 00:36:33;;;;;;;5.13;1.80;;;16.50;99.90;;;;;;4195078;28;20036;-65
2023/09/25 00:38:34;;;;;;;7.47;1.77;;;16.50;99.90;;;;;;4195494;28;20028;-61
2023/09/25 00:40:36;;;;;;;3.40;1.60;;;16.50;99.90;;;;;;4195447;28;20036;-60
2023/09/25 00:42:42;;;;;;;8.18;1.70;;;16.50;99.90;;;;;;4195798;28;20017;-61
2023/09/25 00:44:43;;;;;;;4.10;1.30;;;16.60;99.90;;;;;;4195079;28;20028;-60
2023/09/25 00:46:44;;;;;;;4.07;1.67;;;16.50;99.90;;;;;;4196036;28;20388;-61
2023/09/25 00:48:45;;;;;;;6.72;1.98;;;16.60;99.90;;;;;;4195075;28;20020;-61
2023/09/25 00:50:48;;;;;;;6.20;1.73;;;16.60;99.90;;;;;;4195436;28;20036;-60
2023/09/25 00:52:50;;;;;;;6.70;2.22;;;16.60;99.90;;;;;;4181841;28;20432;-60
2023/09/25 00:54:52;;;;;;;4.57;1.42;;;16.60;99.90;;;;;;4194790;28;20106;-64
2023/09/25 00:56:53;;;;;;;7.47;1.73;;;16.60;99.90;;;;;;4195160;28;20033;-65
2023/09/25 00:58:55;;;;;;;6.55;1.60;;;16.60;99.90;;;;;;4196534;28;20538;-61
2023/09/25 01:00:56;;;;;;;5.88;1.60;;;16.70;99.90;;;;;;4195058;28;20060;-60
2023/09/25 01:02:57;;;;;;;3.83;1.60;;;16.70;99.90;;;;;;4196303;28;20109;-65
2023/09/25 01:05:02;;;;;;;6.32;2.22;;;16.70;99.90;;;;;;4194679;28;20036;-64
2023/09/25 01:07:03;;;;;;;6.15;1.63;;;16.70;99.90;;;;;;4196381;28;20040;-65
2023/09/25 01:09:04;;;;;;;7.40;2.33;;;16.70;99.90;;;;;;4195249;28;20025;-65
2023/09/25 01:11:06;;;;;;;3.58;1.92;;;16.70;99.90;;;;;;4195971;28;20484;-65
2023/09/25 01:13:09;;;;;;;8.73;2.22;;;16.80;99.90;;;;;;4194591;28;20033;-64
2023/09/25 01:15:12;;;;;;;3.17;2.40;;;16.70;99.90;;;;;;4194753;28;20138;-60
2023/09/25 01:17:13;;;;;;;6.30;2.65;;;16.70;99.90;;;;;;4195933;28;20480;-61
2023/09/25 01:19:15;;;;;;;9.65;2.60;;;16.70;99.90;;;;;;4195026;28;20090;-64
2023/09/25 01:21:16;;;;;;;6.45;2.55;;;16.70;99.90;;;;;;4194643;28;20067;-65
2023/09/25 01:23:18;;;;;;;5.78;2.53;;;16.70;99.90;;;;;;4195014;28;20051;-63
2023/09/25 01:25:21;;;;;;;5.28;2.53;;;16.80;99.90;;;;;;4194964;28;20106;-61
2023/09/25 01:27:22;;;;;;;4.38;2.33;;;16.70;99.90;;;;;;4194729;28;20082;-64
2023/09/25 01:29:23;;;;;;;7.03;2.75;;;16.70;99.90;;;;;;4195121;28;20098;-60
2023/09/25 01:31:24;;;;;;;5.68;2.72;;;16.70;99.90;;;;;;4176083;28;20029;-61
2023/09/25 01:33:28;;;;;;;10.70;3.60;;;16.70;99.90;;;;;;4195077;28;20036;-64
2023/09/25 01:35:29;;;;;;;6.03;2.78;;;16.70;99.90;;;;;;4194319;28;20113;-65
2023/09/25 01:37:30;;;;;;;9.05;3.05;;;16.70;99.90;;;;;;4195017;28;20044;-65
2023/09/25 01:39:32;;;;;;;9.05;3.75;;;16.70;99.90;;;;;;4194127;28;20036;-63
2023/09/25 01:41:33;;;;;;;10.18;4.30;;;16.70;99.90;;;;;;4195487;28;20033;-65
2023/09/25 01:43:34;;;;;;;10.68;3.75;;;16.60;99.90;;;;;;4194675;28;20094;-64
2023/09/25 01:45:35;;;;;;;9.45;3.30;;;16.60;99.90;;;;;;4193866;28;20048;-65
2023/09/25 01:47:37;;;;;;;9.00;3.45;;;16.60;99.90;;;;;;4177034;28;20091;-61
2023/09/25 01:49:38;;;;;;;9.00;2.92;;;16.60;99.90;;;;;;4194111;28;20040;-60
2023/09/25 01:51:40;;;;;;;8.07;3.05;;;16.50;99.90;;;;;;4194053;28;20094;-61
2023/09/25 01:53:41;;;;;;;6.25;3.28;;;16.50;99.90;;;;;;4194219;28;20037;-61
2023/09/25 01:55:42;;;;;;;9.35;3.50;;;16.50;99.90;;;;;;4195333;28;20082;-66
2023/09/25 01:57:43;;;;;;;7.90;3.90;;;16.50;99.90;;;;;;4193209;28;20131;-60
2023/09/25 01:59:44;;;;;;;9.00;3.22;;;16.50;99.90;;;;;;4177120;28;20041;-64
2023/09/25 02:01:45;;;;;;;4.38;2.47;;;16.50;99.90;;;;;;4192715;28;20045;-61
2023/09/25 02:03:47;;;;;;;8.80;4.20;;;16.50;99.90;;;;;;4195138;28;20044;-61
2023/09/25 02:05:48;;;;;;;10.15;3.83;;;16.50;99.90;;;;;;4193758;28;20477;-61
2023/09/25 02:07:49;;;;;;;12.25;4.25;;;16.50;99.90;;;;;;4193369;28;20041;-61
2023/09/25 02:09:50;;;;;;;11.80;2.88;;;16.50;99.90;;;;;;4193014;28;20493;-62
2023/09/25 02:11:52;;;;;;;4.68;3.33;;;16.50;99.90;;;;;;4194625;28;20036;-61
2023/09/25 02:13:53;;;;;;;6.53;3.20;;;16.50;99.90;;;;;;4193149;28;20102;-62
2023/09/25 02:15:54;;;;;;;8.98;2.90;;;16.50;99.90;;;;;;4193418;28;20542;-62
2023/09/25 02:17:55;;;;;;;10.90;3.50;;;16.50;99.90;;;;;;4194066;28;20028;-61
2023/09/25 02:20:08;;;;;;;7.80;3.90;;;16.50;99.90;;;;;;4192721;28;20451;-61
2023/09/25 02:22:10;;;;;;;11.00;3.92;;;16.50;99.90;;;;;;4194367;28;20020;-61
2023/09/25 02:24:11;;;;;;;10.13;3.60;;;16.50;99.90;;;;;;4192790;28;20086;-60
2023/09/25 02:26:12;;;;;;;11.73;4.55;;;16.50;99.90;;;;;;4193028;28;20444;-61
2023/09/25 02:28:13;;;;;;;11.05;3.90;;;16.50;99.90;;;;;;4192553;28;20048;-60
2023/09/25 02:30:15;;;;;;;6.80;3.13;;;16.50;99.90;;;;;;4194383;28;20428;-61
2023/09/25 02:32:16;;;;;;;8.98;3.47;;;16.50;99.90;;;;;;4192584;28;20090;-61
2023/09/25 02:34:17;;;;;;;9.25;4.55;;;16.50;99.90;;;;;;4194162;28;20037;-61
2023/09/25 02:36:18;;;;;;;6.50;3.05;;;16.50;99.90;;;;;;4191877;28;20094;-61
2023/09/25 02:38:20;;;;;;;8.88;3.47;;;16.50;99.90;;;;;;4193886;28;20028;-62
2023/09/25 02:40:21;;;;;;;8.98;3.28;;;16.50;99.90;;;;;;4192193;28;20053;-62
2023/09/25 02:42:22;;;;;;;5.85;3.35;;;16.50;99.90;;;;;;4194624;28;20082;-65
2023/09/25 02:44:23;;;;;;;6.97;2.80;;;16.50;99.90;;;;;;4174963;28;20087;-62
2023/09/25 02:46:24;;;;;;;6.57;2.40;;;16.50;99.90;;;;;;4193927;28;20032;-62
2023/09/25 02:48:25;;;;;;;9.20;2.85;;;16.50;99.90;;;;;;4193442;28;20029;-61
2023/09/25 02:50:26;;;;;;;10.07;2.33;;;16.50;99.90;;;;;;4192757;28;20029;-62
2023/09/25 02:52:27;;;;;;;8.82;3.58;;;16.60;99.90;;;;;;4194042;28;20037;-62
2023/09/25 02:54:29;;;;;;;9.48;3.03;;;16.50;99.90;;;;;;4193230;28;20036;-62
2023/09/25 02:56:30;;;;;;;7.20;2.63;;;16.50;99.90;;;;;;4192955;28;20060;-62
2023/09/25 02:58:31;;;;;;;8.80;2.58;;;16.50;99.90;;;;;;4191396;28;20032;-61
2023/09/25 03:00:32;;;;;;;7.85;3.40;;;16.50;99.90;;;;;;4194276;28;20078;-62
2023/09/25 03:02:33;;;;;;;5.88;3.30;;;16.40;99.90;;;;;;4192291;28;20451;-61
2023/09/25 03:04:34;;;;;;;9.90;4.60;;;16.40;99.90;;;;;;4193120;28;20036;-61
2023/09/25 03:06:35;;;;;;;12.23;4.90;;;16.40;99.90;;;;;;4192724;28;20044;-63
2023/09/25 03:08:36;;;;;;;14.35;5.05;;;16.40;99.90;;;;;;4194556;28;20032;-62
2023/09/25 03:10:37;;;;;;;7.32;3.50;;;16.40;99.90;;;;;;4192976;28;20077;-61
2023/09/25 03:12:39;;;;;;;6.80;3.83;;;16.40;99.90;;;;;;4194075;28;20036;-62
2023/09/25 03:14:40;;;;;;;12.15;5.45;;;16.40;99.90;;;;;;4193312;28;20058;-61
2023/09/25 03:16:42;;;;;;;7.28;4.20;;;16.40;99.90;;;;;;4194106;28;20036;-62
2023/09/25 03:18:43;;;;;;;11.10;5.75;;;16.30;99.90;;;;;;4193274;28;20078;-61
2023/09/25 03:20:44;;;;;;;9.40;5.45;;;16.30;99.90;;;;;;4193525;28;20033;-61
2023/09/25 03:22:46;;;;;;;11.50;6.38;;;16.30;99.90;;;;;;4193337;28;20168;-61
2023/09/25 03:24:48;;;;;;;13.30;5.70;;;16.30;99.90;;;;;;4192899;28;20106;-62
2023/09/25 03:26:50;;;;;;;10.73;5.25;;;16.30;99.90;;;;;;4192105;28;20113;-61
2023/09/25 03:28:51;;;;;;;10.30;5.78;;;16.30;99.90;;;;;;4191966;28;20048;-61
2023/09/25 03:30:52;;;;;;;10.32;5.82;;;16.30;99.90;;;;;;4193170;28;20472;-61
2023/09/25 03:32:54;;;;;;;14.80;6.32;;;16.20;99.90;;;;;;4191849;28;20037;-62
2023/09/25 03:34:56;;;;;;;13.05;6.07;;;16.20;99.90;;;;;;4192945;28;20485;-61
2023/09/25 03:36:57;;;;;;;13.98;6.38;;;16.10;99.90;;;;;;4192400;28;20161;-61
2023/09/25 03:38:58;;;;;;;12.48;5.43;;;16.10;99.90;;;;;;4193970;28;20036;-61
2023/09/25 03:40:59;;;;;;;15.68;5.38;;;16.10;99.90;;;;;;4191806;28;20052;-60
2023/09/25 03:43:00;;;;;;;14.57;4.53;;;16.10;99.90;;;;;;4192941;28;20534;-63
2023/09/25 03:45:02;;;;;;;10.68;4.28;;;16.00;99.90;;;;;;4192598;28;20033;-63
2023/09/25 03:47:03;;;;;;;10.20;4.15;;;16.00;99.90;;;;;;4193716;28;20085;-64
2023/09/25 03:49:06;;;;;;;12.68;4.75;;;16.00;99.90;;;;;;4192217;28;20078;-61
2023/09/25 03:51:07;;;;;;;11.02;4.70;;;16.00;99.90;;;;;;4192929;28;20477;-64
2023/09/25 03:53:08;;;;;;;30.95;6.50;;;15.90;99.90;;;;;;4191582;28;20045;-63
2023/09/25 03:55:09;;;;;;;8.32;3.42;;;15.90;99.90;;;;;;4192712;28;20029;-65
2023/09/25 03:57:10;;;;;;;6.10;2.63;;;15.90;99.90;;;;;;4192836;28;20037;-63
2023/09/25 03:59:11;;;;;;;4.82;2.92;;;15.80;99.90;;;;;;4192564;28;20025;-62
2023/09/25 04:01:12;;;;;;;26.05;8.60;;;15.80;99.90;;;;;;4193792;28;20408;-62
2023/09/25 04:03:13;;;;;;;4.30;2.08;;;15.80;99.90;;;;;;4191705;28;20884;-61
2023/09/25 04:05:14;;;;;;;4.78;1.83;;;15.70;99.90;;;;;;4193923;28;20075;-62
2023/09/25 04:07:15;;;;;;;8.93;1.70;;;15.50;99.90;;;;;;4191703;28;20044;-61
2023/09/25 04:09:17;;;;;;;3.85;1.92;;;15.50;99.90;;;;;;4193518;28;20033;-63
2023/09/25 04:11:18;;;;;;;7.45;1.95;;;15.40;99.90;;;;;;4191676;28;20074;-63
2023/09/25 04:13:22;;;;;;;8.00;2.20;;;15.40;99.90;;;;;;4192448;28;20451;-62
2023/09/25 04:15:24;;;;;;;6.07;2.40;;;15.40;99.90;;;;;;4173872;28;20048;-63
2023/09/25 04:17:27;;;;;;;4.75;2.50;;;15.40;99.90;;;;;;4193634;28;20118;-62
2023/09/25 04:19:28;;;;;;;6.88;2.58;;;15.40;99.90;;;;;;4191678;28;20453;-64
2023/09/25 04:21:31;;;;;;;7.55;2.25;;;15.40;99.90;;;;;;4193133;28;20025;-63
2023/09/25 04:23:33;;;;;;;7.47;3.40;;;15.50;99.90;;;;;;4192544;28;20090;-62
2023/09/25 04:25:34;;;;;;;4.35;2.30;;;15.50;99.90;;;;;;4193122;28;20102;-64
2023/09/25 04:27:36;;;;;;;11.98;2.70;;;15.50;99.90;;;;;;4192288;28;20093;-61
2023/09/25 04:29:38;;;;;;;8.77;3.45;;;15.60;99.90;;;;;;4192326;28;20028;-63
2023/09/25 04:31:40;;;;;;;8.23;3.35;;;15.60;99.90;;;;;;4196070;28;20025;-62
2023/09/25 04:33:41;;;;;;;7.05;2.60;;;15.70;99.90;;;;;;4194401;28;20049;-60
2023/09/25 04:35:42;;;;;;;6.38;2.38;;;15.80;99.90;;;;;;4195464;28;20466;-60
2023/09/25 04:37:44;;;;;;;7.10;2.47;;;15.90;99.90;;;;;;4176168;28;20041;-60
2023/09/25 04:39:45;;;;;;;6.30;2.33;;;16.10;99.90;;;;;;4196018;28;20500;-60
2023/09/25 04:41:47;;;;;;;4.53;2.10;;;16.10;99.90;;;;;;4194313;28;20391;-62
2023/09/25 04:43:48;;;;;;;7.28;2.67;;;16.20;99.90;;;;;;4196052;28;20020;-61
2023/09/25 04:45:52;;;;;;;7.30;2.30;;;16.40;99.90;;;;;;4184375;28;20033;-62
2023/09/25 04:47:53;;;;;;;5.22;2.60;;;16.50;99.90;;;;;;4184751;28;20403;-63
2023/09/25 04:49:55;;;;;;;4.88;2.72;;;16.60;99.90;;;;;;4174593;28;20535;-60
2023/09/25 04:51:56;;;;;;;2.72;2.20;;;16.70;99.90;;;;;;4195396;28;20032;-60
2023/09/25 04:53:57;;;;;;;6.38;2.47;;;16.70;99.90;;;;;;4192127;28;20032;-60
2023/09/25 04:55:58;;;;;;;5.57;2.15;;;16.70;99.90;;;;;;4193735;28;20045;-61
2023/09/25 04:57:59;;;;;;;7.47;2.60;;;16.80;99.90;;;;;;4193182;28;20059;-61
2023/09/25 05:00:34;;;;;;;5.25;2.83;;;16.70;99.90;;;;;;4195182;28;20041;-60
2023/09/25 05:02:27;;;;;;;13.00;5.53;;;16.70;99.90;;;;;;4184703;28;20044;-61
2023/09/25 05:04:28;;;;;;;15.60;5.22;;;16.70;99.90;;;;;;4194890;28;20094;-61
2023/09/25 05:06:29;;;;;;;13.15;5.60;;;16.60;99.90;;;;;;4195388;28;20028;-60
2023/09/25 05:08:31;;;;;;;12.38;4.88;;;16.50;99.90;;;;;;4194591;28;20048;-60
2023/09/25 05:10:32;;;;;;;15.27;8.55;;;16.50;99.90;;;;;;4194765;28;20048;-60
2023/09/25 05:12:33;;;;;;;17.02;6.68;;;16.50;99.90;;;;;;4193670;28;20028;-61
2023/09/25 05:14:34;;;;;;;15.68;6.78;;;16.60;99.90;;;;;;4196254;28;20101;-62
2023/09/25 05:16:35;;;;;;;13.27;5.25;;;16.70;99.90;;;;;;4193266;28;20102;-61
2023/09/25 05:18:36;;;;;;;8.85;4.70;;;16.80;99.90;;;;;;4194500;28;20036;-61
2023/09/25 05:20:37;;;;;;;25.13;11.68;;;16.90;99.90;;;;;;4193874;28;20094;-61
2023/09/25 05:22:39;;;;;;;16.48;7.03;;;16.90;99.90;;;;;;4194850;28;20041;-61
2023/09/25 05:24:40;;;;;;;11.95;5.63;;;16.80;99.90;;;;;;4194647;28;20453;-61
2023/09/25 05:26:42;;;;;;;15.30;7.32;;;16.80;99.90;;;;;;4195308;28;20041;-59
2023/09/25 05:28:43;;;;;;;23.10;9.48;;;16.80;99.90;;;;;;4194648;28;20021;-61
2023/09/25 05:30:44;;;;;;;65.78;29.92;;;16.70;99.90;;;;;;4195694;28;20094;-60
2023/09/25 05:32:48;;;;;;;45.92;17.10;;;16.70;99.90;;;;;;4193927;28;20032;-61
2023/09/25 05:34:49;;;;;;;38.33;12.73;;;16.70;99.90;;;;;;4194541;28;20097;-58
2023/09/25 05:36:50;;;;;;;25.55;10.57;;;16.80;99.90;;;;;;4195025;28;20430;-61
2023/09/25 05:38:55;;;;;;;24.77;10.25;;;16.90;99.90;;;;;;4194599;28;20054;-66
2023/09/25 05:40:56;;;;;;;18.50;8.23;;;17.00;99.90;;;;;;4195200;28;20506;-61
2023/09/25 05:42:57;;;;;;;19.88;9.38;;;17.20;99.90;;;;;;4174700;28;20048;-62
2023/09/25 05:44:58;;;;;;;16.55;6.43;;;17.40;99.90;;;;;;4194620;28;20090;-62
2023/09/25 05:46:59;;;;;;;14.18;7.30;;;17.60;99.90;;;;;;4193320;28;20033;-62
2023/09/25 05:49:00;;;;;;;15.00;6.35;;;17.80;99.90;;;;;;4195454;28;20036;-61
2023/09/25 05:51:02;;;;;;;17.67;6.70;;;18.00;99.90;;;;;;4176272;28;20049;-62
2023/09/25 05:53:04;;;;;;;11.13;5.80;;;18.10;99.90;;;;;;4194336;28;20098;-61
2023/09/25 05:55:06;;;;;;;16.13;6.30;;;18.20;99.90;;;;;;4194194;28;20040;-61
2023/09/25 05:57:08;;;;;;;15.23;6.15;;;18.20;99.90;;;;;;4177183;28;20049;-62
2023/09/25 05:59:09;;;;;;;17.77;7.25;;;18.30;99.90;;;;;;4194311;28;20028;-61
2023/09/25 06:01:10;;;;;;;11.65;6.53;;;18.20;99.90;;;;;;4194143;28;20101;-62
2023/09/25 06:03:12;;;;;;;22.92;8.23;;;18.20;99.90;;;;;;4193297;28;20495;-62
2023/09/25 06:05:13;;;;;;;13.00;6.63;;;18.30;99.90;;;;;;4194839;28;20021;-63
2023/09/25 06:07:14;;;;;;;10.10;5.70;;;18.40;99.90;;;;;;4193529;28;20101;-61
2023/09/25 06:09:15;;;;;;;12.73;5.38;;;18.50;99.90;;;;;;4193540;28;20041;-62
2023/09/25 06:11:17;;;;;;;11.50;5.15;;;18.50;99.90;;;;;;4194017;28;20041;-61
2023/09/25 06:13:18;;;;;;;16.15;6.55;;;18.50;99.90;;;;;;4192861;28;20427;-62
2023/09/25 06:15:19;;;;;;;10.15;5.22;;;18.60;99.90;;;;;;4193868;28;20094;-62
2023/09/25 06:17:20;;;;;;;13.10;6.15;;;18.60;99.90;;;;;;4193968;28;20391;-62
2023/09/25 06:19:21;;;;;;;14.50;6.25;;;18.70;99.90;;;;;;4195086;28;20033;-61
2023/09/25 06:21:23;;;;;;;13.30;6.68;;;18.70;99.90;;;;;;4193534;28;20020;-63
2023/09/25 06:23:24;;;;;;;15.07;7.10;;;18.70;99.90;;;;;;4194635;28;20028;-62
2023/09/25 06:25:25;;;;;;;15.88;6.60;;;18.80;99.90;;;;;;4193430;28;20098;-63
2023/09/25 06:27:27;;;;;;;10.38;7.28;;;18.80;99.90;;;;;;4193791;28;20426;-61
2023/09/25 06:29:28;;;;;;;18.77;7.03;;;19.00;99.90;;;;;;4193582;28;20473;-62
2023/09/25 06:31:29;;;;;;;14.73;6.50;;;19.20;99.90;;;;;;4194694;28;20081;-65
2023/09/25 06:33:30;;;;;;;21.98;6.63;;;19.40;99.90;;;;;;4193604;28;20346;-64
2023/09/25 06:35:33;;;;;;;15.27;6.90;;;19.60;99.90;;;;;;4193509;28;20063;-66
2023/09/25 06:37:34;;;;;;;17.83;6.47;;;19.80;99.90;;;;;;4192989;28;20102;-64
2023/09/25 06:39:35;;;;;;;12.88;5.78;;;20.10;99.90;;;;;;4193882;28;20029;-67
2023/09/25 06:41:37;;;;;;;15.32;5.35;;;20.30;99.90;;;;;;4194359;28;20104;-65
2023/09/25 06:43:38;;;;;;;11.77;5.53;;;20.50;99.90;;;;;;4192511;28;20040;-66
2023/09/25 06:45:40;;;;;;;16.38;5.88;;;20.70;99.90;;;;;;4194576;28;20111;-63
2023/09/25 06:47:42;;;;;;;20.85;8.48;;;20.80;99.90;;;;;;4192783;28;20078;-63
2023/09/25 06:49:43;;;;;;;14.05;7.32;;;20.90;99.90;;;;;;4194585;28;21386;-65
2023/09/25 06:51:44;;;;;;;14.13;8.55;;;20.90;99.90;;;;;;4192370;28;20037;-64
2023/09/25 06:53:45;;;;;;;22.42;10.45;;;21.10;99.90;;;;;;4192953;28;20044;-65
2023/09/25 06:55:47;;;;;;;20.75;11.07;;;21.20;99.90;;;;;;4193300;28;20415;-65
2023/09/25 06:57:48;;;;;;;19.05;11.20;;;21.40;99.90;;;;;;4194187;28;20090;-64
2023/09/25 06:59:49;;;;;;;16.15;9.25;;;21.60;99.90;;;;;;4192386;28;20469;-62
2023/09/25 07:01:50;;;;;;;13.32;7.80;;;21.70;99.90;;;;;;4194310;28;20476;-65
2023/09/25 07:03:51;;;;;;;15.13;8.18;;;21.50;99.90;;;;;;4193234;28;20405;-65
2023/09/25 07:05:53;;;;;;;14.88;7.65;;;21.80;99.90;;;;;;4193834;28;20082;-66
2023/09/25 07:07:56;;;;;;;13.63;8.35;;;21.80;99.90;;;;;;4192637;28;20411;-63
2023/09/25 07:09:57;;;;;;;13.15;7.72;;;22.00;99.90;;;;;;4193476;28;20419;-66
2023/09/25 07:11:59;;;;;;;11.93;7.07;;;22.10;99.90;;;;;;4194043;28;20062;-64
2023/09/25 07:14:00;;;;;;;12.10;7.03;;;22.30;99.90;;;;;;4192914;28;20492;-66
2023/09/25 07:16:06;;;;;;;16.63;7.07;;;22.30;99.90;;;;;;4193861;28;20036;-65
2023/09/25 07:18:07;;;;;;;13.35;7.30;;;22.30;99.90;;;;;;4192964;28;20025;-62
2023/09/25 07:20:09;;;;;;;9.90;6.13;;;22.50;99.90;;;;;;4193079;28;20028;-63
2023/09/25 07:22:10;;;;;;;10.77;6.20;;;22.40;99.90;;;;;;4192932;28;20078;-64
2023/09/25 07:24:12;;;;;;;12.73;6.35;;;22.50;99.90;;;;;;4192797;28;20410;-65
2023/09/25 07:26:15;;;;;;;13.40;6.07;;;22.50;99.90;;;;;;4192830;28;20074;-66
2023/09/25 07:28:16;;;;;;;11.65;5.57;;;22.60;99.90;;;;;;4175621;28;20041;-63
2023/09/25 07:30:18;;;;;;;13.60;5.75;;;22.80;99.90;;;;;;4192988;28;20083;-66
2023/09/25 07:32:19;;;;;;;10.27;5.57;;;22.90;99.90;;;;;;4193787;28;20384;-65
2023/09/25 07:34:20;;;;;;;11.23;6.53;;;22.90;99.90;;;;;;4192572;28;20025;-65
2023/09/25 07:36:24;;;;;;;11.60;6.05;;;23.00;99.90;;;;;;4193715;28;20077;-66
2023/09/25 07:38:25;;;;;;;13.68;5.05;;;22.90;99.90;;;;;;4192901;28;20033;-62
2023/09/25 07:40:26;;;;;;;10.75;4.28;;;22.90;99.90;;;;;;4193290;28;20028;-65
2023/09/25 07:42:28;;;;;;;15.13;3.65;;;23.00;99.90;;;;;;4191883;28;20125;-63
2023/09/25 07:44:31;;;;;;;11.18;3.83;;;22.90;99.90;;;;;;4193221;28;20028;-65
2023/09/25 07:46:34;;;;;;;6.60;3.33;;;22.80;99.90;;;;;;4193328;28;20421;-63
2023/09/25 07:48:38;;;;;;;5.35;4.05;;;22.80;99.90;;;;;;4192037;28;20048;-63
2023/09/25 07:50:40;;;;;;;4.80;3.13;;;22.70;99.90;;;;;;4193723;28;20032;-63
2023/09/25 07:52:42;;;;;;;8.45;3.78;;;22.80;99.90;;;;;;4191872;28;20086;-62
2023/09/25 07:54:44;;;;;;;9.65;3.78;;;23.00;99.90;;;;;;4193746;28;20788;-61
2023/09/25 07:56:46;;;;;;;8.80;3.38;;;23.30;99.90;;;;;;4192664;28;20109;-62
2023/09/25 07:58:48;;;;;;;6.93;3.30;;;23.40;99.90;;;;;;4192822;28;20045;-61
2023/09/25 08:00:49;;;;;;;7.40;3.28;;;23.40;99.90;;;;;;4192498;28;20435;-61
2023/09/25 08:02:52;;;;;;;6.95;2.88;;;23.60;99.90;;;;;;4193671;28;20016;-65
2023/09/25 08:04:53;;;;;;;6.15;2.67;;;23.60;99.90;;;;;;4192487;28;20125;-62
2023/09/25 08:06:54;;;;;;;9.57;3.50;;;23.70;99.90;;;;;;4197016;28;20086;-65
2023/09/25 08:08:59;;;;;;;8.02;2.70;;;23.70;99.90;;;;;;4194859;28;20029;-62
2023/09/25 08:11:00;;;;;;;7.88;3.08;;;23.80;99.90;;;;;;4195940;28;20044;-62
2023/09/25 08:13:01;;;;;;;8.60;3.53;;;24.00;99.90;;;;;;4195963;28;20036;-64
2023/09/25 08:15:03;;;;;;;8.48;3.15;;;24.30;99.90;;;;;;4195567;28;20181;-63
2023/09/25 08:17:05;;;;;;;11.43;2.97;;;24.30;99.90;;;;;;4196100;28;20041;-62
2023/09/25 08:19:06;;;;;;;6.55;2.90;;;24.30;99.90;;;;;;4196095;28;20024;-61
2023/09/25 08:21:08;;;;;;;9.65;3.15;;;24.20;99.90;;;;;;4195457;28;20351;-62
2023/09/25 08:23:09;;;;;;;7.53;3.03;;;24.20;99.90;;;;;;4195707;28;20093;-61
2023/09/25 08:25:11;;;;;;;7.82;3.85;;;24.20;99.90;;;;;;4195621;28;20521;-61
2023/09/25 08:27:12;;;;;;;5.93;3.65;;;24.50;99.90;;;;;;4195580;28;20094;-61
2023/09/25 08:29:16;;;;;;;6.38;3.45;;;24.80;99.90;;;;;;4196866;28;20106;-63
2023/09/25 08:31:17;;;;;;;8.50;3.40;;;25.20;99.90;;;;;;4194554;28;20094;-63
2023/09/25 08:33:18;;;;;;;6.47;3.28;;;25.00;99.90;;;;;;4195334;28;20041;-62
2023/09/25 08:35:20;;;;;;;8.70;3.72;;;25.00;99.90;;;;;;4195363;28;20495;-61
2023/09/25 08:37:21;;;;;;;6.43;3.42;;;25.00;99.90;;;;;;4195639;28;20086;-61
2023/09/25 08:39:22;;;;;;;5.85;3.80;;;25.00;99.90;;;;;;4194170;28;20133;-62
2023/09/25 08:41:24;;;;;;;10.73;4.45;;;25.00;99.90;;;;;;4196206;28;20524;-60
2023/09/25 08:43:27;;;;;;;4.93;2.78;;;25.10;99.90;;;;;;4195326;28;20020;-60
2023/09/25 08:45:29;;;;;;;5.07;3.38;;;25.30;99.90;;;;;;4195659;28;20075;-61
2023/09/25 08:47:34;;;;;;;12.88;3.95;;;25.40;99.90;;;;;;4194375;28;20074;-61
2023/09/25 08:49:36;;;;;;;5.85;3.50;;;25.10;99.90;;;;;;4195708;28;20406;-61
2023/09/25 08:51:39;;;;;;;7.38;3.58;;;24.80;99.90;;;;;;4195624;28;20120;-60
2023/09/25 08:53:40;;;;;;;8.57;4.13;;;24.40;99.90;;;;;;4195217;28;20032;-63
2023/09/25 08:55:43;;;;;;;9.43;3.90;;;24.10;99.90;;;;;;4195621;28;20086;-61
2023/09/25 08:57:45;;;;;;;9.60;4.35;;;23.90;99.90;;;;;;4194740;28;20037;-60
2023/09/25 08:59:50;;;;;;;8.77;4.20;;;23.80;99.90;;;;;;4195090;28;20086;-63
2023/09/25 09:01:51;;;;;;;10.23;4.63;;;23.80;99.90;;;;;;4194870;28;20021;-62
2023/09/25 09:03:53;;;;;;;9.25;5.18;;;23.60;99.90;;;;;;4195325;28;20062;-61
2023/09/25 09:05:54;;;;;;;7.25;3.67;;;23.60;99.90;;;;;;4194883;28;20028;-62
2023/09/25 09:08:01;;;;;;;11.02;4.00;;;23.60;99.90;;;;;;4195610;28;20044;-60
2023/09/25 09:10:02;;;;;;;7.28;3.78;;;23.50;99.90;;;;;;4193786;28;20036;-61
2023/09/25 09:12:05;;;;;;;9.05;3.83;;;23.50;99.90;;;;;;4196073;28;20494;-61
2023/09/25 09:14:06;;;;;;;7.65;4.10;;;23.50;99.90;;;;;;4194132;28;20045;-60
2023/09/25 09:16:15;;;;;;;12.10;4.30;;;23.40;99.90;;;;;;4194873;28;20128;-61
2023/09/25 09:18:20;;;;;;;11.98;5.10;;;23.50;99.90;;;;;;4194628;28;20040;-62
2023/09/25 09:20:37;;;;;;;9.55;4.30;;;23.60;99.90;;;;;;4195664;28;20025;-62
2023/09/25 09:22:50;;;;;;;9.70;4.07;;;23.60;99.90;;;;;;4194493;28;20028;-62
2023/09/25 09:24:56;;;;;;;8.15;3.95;;;23.90;99.90;;;;;;4194163;28;20177;-60
2023/09/25 09:26:58;;;;;;;12.75;4.10;;;24.00;99.90;;;;;;4193653;28;20024;-61
2023/09/25 09:28:59;;;;;;;9.20;4.63;;;24.10;99.90;;;;;;4194762;28;20094;-60
2023/09/25 09:31:02;;;;;;;6.07;4.00;;;24.20;99.90;;;;;;4193903;28;20024;-61
2023/09/25 09:33:04;;;;;;;9.02;3.95;;;24.30;99.90;;;;;;4194846;28;20534;-63
2023/09/25 09:35:08;;;;;;;7.80;4.70;;;24.30;99.90;;;;;;4193906;28;20129;-65
2023/09/25 09:37:09;;;;;;;7.55;4.28;;;24.20;99.90;;;;;;4193841;28;20109;-63
2023/09/25 09:39:13;;;;;;;11.50;4.03;;;24.10;99.90;;;;;;4194061;28;20150;-65
2023/09/25 09:41:15;;;;;;;14.82;4.95;;;24.10;99.90;;;;;;4193468;28;20138;-60
2023/09/25 09:43:16;;;;;;;7.90;4.22;;;24.00;99.90;;;;;;4194363;28;20365;-63
2023/09/25 09:45:19;;;;;;;8.35;4.07;;;24.00;99.90;;;;;;4193072;28;20307;-62
2023/09/25 09:47:24;;;;;;;9.00;4.82;;;24.10;99.90;;;;;;4194366;28;20451;-65
2023/09/25 09:49:26;;;;;;;8.93;3.67;;;24.30;99.90;;;;;;4192150;28;20110;-62
2023/09/25 09:51:32;;;;;;;15.88;4.80;;;24.30;99.90;;;;;;4194398;28;20115;-63
2023/09/25 09:53:36;;;;;;;8.15;3.95;;;24.50;99.90;;;;;;4192050;28;20090;-66
2023/09/25 09:55:38;;;;;;;7.32;4.70;;;24.60;99.90;;;;;;4193614;28;20037;-66
2023/09/25 09:57:40;;;;;;;8.73;4.45;;;24.70;99.90;;;;;;4193519;28;20040;-62
2023/09/25 09:59:41;;;;;;;6.50;4.28;;;24.60;99.90;;;;;;4193889;28;20112;-63
2023/09/25 10:01:45;;;;;;;10.23;4.80;;;24.40;99.90;;;;;;4193336;28;20469;-64
2023/09/25 10:03:47;;;;;;;11.48;4.53;;;24.40;99.90;;;;;;4194578;28;20028;-63
2023/09/25 10:05:49;;;;;;;9.77;3.60;;;24.60;99.90;;;;;;4192502;28;20543;-64
2023/09/25 10:08:05;;;;;;;7.25;4.07;;;24.60;99.90;;;;;;4194150;28;20024;-65
2023/09/25 10:10:07;;;;;;;9.05;3.90;;;24.50;99.90;;;;;;4193158;28;20178;-64
2023/09/25 10:12:09;;;;;;;8.68;3.70;;;24.50;99.90;;;;;;4193006;28;20052;-66
2023/09/25 10:14:10;;;;;;;13.15;3.95;;;24.30;99.90;;;;;;4193313;28;20065;-60
2023/09/25 10:16:12;;;;;;;9.48;4.20;;;24.30;99.90;;;;;;4193636;28;20431;-62
2023/09/25 10:18:14;;;;;;;8.75;4.07;;;24.20;99.90;;;;;;4193208;28;20101;-62
2023/09/25 10:20:30;;;;;;;9.93;4.47;;;24.30;99.90;;;;;;4193352;28;20131;-60
2023/09/25 10:22:31;;;;;;;7.47;4.65;;;24.30;99.90;;;;;;4192710;28;20477;-62
2023/09/25 10:24:33;;;;;;;7.95;3.78;;;24.40;99.90;;;;;;4148076;28;1288234;-66
2023/09/25 10:26:37;;;;;;;5.60;3.72;;;24.40;99.90;;;;;;4194250;28;20085;-62
2023/09/25 10:28:39;;;;;;;6.65;3.83;;;24.40;99.90;;;;;;4192816;28;20086;-65
2023/09/25 10:30:41;;;;;;;8.10;4.05;;;24.30;99.90;;;;;;4193778;28;20389;-64